Time;durP1;ratioP1;P1;durP2;ratioP2;P2;SDS_P1;SDS_P2;PMS_P1;PMS_P2;Temp;Humidity;BMP_temperature;BMP_pressure;BME280_temperature;BME280_humidity;BME280_pressure;Samples;Min_cycle;Max_cycle;Signal;HPM_P1;HPM_P2
2023/12/11 00:00:15;;;;;;;26.67;4.68;;;8.90;99.90;;;;;;5008784;28;20077;-35
2023/12/11 00:02:40;;;;;;;24.83;4.18;;;8.90;99.90;;;;;;5006063;28;20057;-35
2023/12/11 00:05:06;;;;;;;25.27;4.63;;;8.90;99.90;;;;;;5006213;28;20054;-35
2023/12/11 00:07:32;;;;;;;29.20;4.85;;;9.00;99.90;;;;;;5005770;28;20189;-35
2023/12/11 00:09:58;;;;;;;25.17;4.53;;;9.00;99.90;;;;;;5010044;28;20458;-35
2023/12/11 00:12:24;;;;;;;21.58;4.85;;;8.90;99.90;;;;;;5007171;28;20049;-35
2023/12/11 00:14:49;;;;;;;22.50;4.32;;;8.90;99.90;;;;;;5012228;28;20115;-35
2023/12/11 00:17:15;;;;;;;27.45;4.45;;;9.00;99.90;;;;;;5007449;28;20399;-35
2023/12/11 00:19:41;;;;;;;24.92;4.22;;;8.90;99.90;;;;;;5010055;28;20056;-35
2023/12/11 00:22:07;;;;;;;24.85;4.53;;;8.90;99.90;;;;;;5007097;28;20049;-35
2023/12/11 00:24:32;;;;;;;25.40;4.60;;;9.00;99.90;;;;;;5005325;28;20532;-41
2023/12/11 00:26:58;;;;;;;25.00;4.13;;;9.00;99.90;;;;;;5007308;28;20050;-35
2023/12/11 00:29:24;;;;;;;24.45;4.00;;;9.00;99.90;;;;;;5004973;28;20081;-34
2023/12/11 00:31:50;;;;;;;26.67;4.30;;;9.00;99.90;;;;;;5007431;28;20054;-35
2023/12/11 00:34:16;;;;;;;26.23;4.38;;;9.00;99.90;;;;;;5005080;28;20053;-35
2023/12/11 00:36:42;;;;;;;22.17;3.97;;;9.00;99.90;;;;;;5006232;28;20065;-35
2023/12/11 00:39:08;;;;;;;24.15;4.15;;;9.00;99.90;;;;;;5007359;28;20049;-35
2023/12/11 00:41:34;;;;;;;20.08;3.80;;;9.00;99.90;;;;;;5009014;28;20052;-35
2023/12/11 00:43:59;;;;;;;24.92;4.28;;;8.90;99.90;;;;;;5005578;28;20050;-35
2023/12/11 00:46:25;;;;;;;21.42;3.70;;;8.80;99.90;;;;;;5008185;28;21802;-35
2023/12/11 00:48:51;;;;;;;20.65;4.15;;;8.80;99.90;;;;;;5005371;28;20054;-35
2023/12/11 00:51:17;;;;;;;24.50;4.55;;;8.70;99.90;;;;;;5008115;28;20050;-35
2023/12/11 00:53:44;;;;;;;24.67;4.25;;;8.70;99.90;;;;;;5006520;28;20053;-35
2023/12/11 00:56:10;;;;;;;23.42;4.07;;;8.60;99.90;;;;;;5004873;28;20128;-35
2023/12/11 00:58:35;;;;;;;21.00;3.28;;;8.60;99.90;;;;;;5004235;28;20495;-35
2023/12/11 01:01:01;;;;;;;22.05;4.25;;;8.50;99.90;;;;;;5009211;28;20558;-38
2023/12/11 01:03:27;;;;;;;28.15;4.20;;;8.50;99.90;;;;;;5009167;28;20049;-35
2023/12/11 01:05:52;;;;;;;25.02;4.65;;;8.50;99.90;;;;;;5007133;28;20049;-35
2023/12/11 01:08:18;;;;;;;25.00;4.65;;;8.40;99.90;;;;;;5009412;28;20057;-35
2023/12/11 01:10:44;;;;;;;22.08;3.90;;;8.40;99.90;;;;;;5005631;28;20042;-35
2023/12/11 01:13:09;;;;;;;23.30;4.32;;;8.40;99.90;;;;;;5001369;28;20491;-35
2023/12/11 01:15:35;;;;;;;28.85;4.05;;;8.40;99.90;;;;;;5003053;28;20109;-35
2023/12/11 01:18:01;;;;;;;30.27;4.15;;;8.40;99.90;;;;;;5004933;28;20072;-35
2023/12/11 01:20:27;;;;;;;24.67;4.60;;;8.40;99.90;;;;;;4999942;28;20412;-35
2023/12/11 01:22:53;;;;;;;26.50;4.32;;;8.50;99.90;;;;;;5000337;28;20057;-38
2023/12/11 01:25:19;;;;;;;28.65;4.72;;;8.50;99.90;;;;;;5005709;28;20041;-35
2023/12/11 01:27:44;;;;;;;29.27;5.45;;;8.50;99.90;;;;;;5003137;28;20099;-35
2023/12/11 01:30:10;;;;;;;29.38;5.55;;;8.50;99.90;;;;;;5005595;28;20091;-35
2023/12/11 01:32:36;;;;;;;29.30;4.95;;;8.50;99.90;;;;;;5004455;28;20460;-34
2023/12/11 01:35:02;;;;;;;30.40;5.93;;;8.50;99.90;;;;;;5005930;28;20050;-40
2023/12/11 01:37:27;;;;;;;30.63;6.18;;;8.60;99.90;;;;;;5004766;28;20046;-35
2023/12/11 01:39:53;;;;;;;33.58;5.30;;;8.60;99.90;;;;;;5006297;28;20496;-35
2023/12/11 01:42:19;;;;;;;36.22;6.80;;;8.70;99.90;;;;;;5001716;28;20180;-35
2023/12/11 01:44:45;;;;;;;30.92;5.97;;;8.70;99.90;;;;;;5004990;28;20408;-35
2023/12/11 01:47:10;;;;;;;31.02;6.38;;;8.80;99.90;;;;;;5006766;28;20181;-35
2023/12/11 01:49:37;;;;;;;32.13;5.50;;;8.80;99.90;;;;;;5002954;28;20054;-35
2023/12/11 01:52:03;;;;;;;28.70;6.00;;;8.80;99.90;;;;;;5005772;28;20069;-40
2023/12/11 01:54:30;;;;;;;39.33;6.32;;;8.80;99.90;;;;;;5004538;28;20183;-35
2023/12/11 01:56:56;;;;;;;34.92;5.90;;;8.90;99.90;;;;;;5001902;28;20061;-35
2023/12/11 01:59:22;;;;;;;39.50;7.78;;;8.90;99.90;;;;;;5004710;28;20065;-35
2023/12/11 02:01:49;;;;;;;35.60;6.28;;;8.90;99.90;;;;;;5002370;28;20050;-35
2023/12/11 02:04:15;;;;;;;31.92;5.10;;;8.90;99.90;;;;;;5004379;28;20141;-35
2023/12/11 02:06:41;;;;;;;32.53;6.25;;;9.00;99.90;;;;;;5002652;28;20049;-35
2023/12/11 02:09:08;;;;;;;36.60;5.90;;;9.00;99.90;;;;;;5005719;28;20049;-35
2023/12/11 02:11:34;;;;;;;34.70;6.45;;;9.00;99.90;;;;;;5003947;28;20136;-35
2023/12/11 02:13:59;;;;;;;35.50;5.80;;;9.00;99.90;;;;;;5003363;28;20488;-35
2023/12/11 02:16:25;;;;;;;35.65;6.07;;;9.00;99.90;;;;;;5004839;28;20050;-35
2023/12/11 02:18:51;;;;;;;35.83;6.10;;;9.00;99.90;;;;;;4999488;28;20050;-35
2023/12/11 02:21:18;;;;;;;37.72;6.00;;;9.10;99.90;;;;;;5003095;28;20416;-35
2023/12/11 02:23:55;;;;;;;32.53;5.60;;;9.10;99.90;;;;;;5004583;28;20041;-36
2023/12/11 02:26:21;;;;;;;34.17;5.50;;;9.10;99.90;;;;;;5003904;28;20510;-35
2023/12/11 02:28:47;;;;;;;34.22;6.13;;;9.10;99.90;;;;;;5006114;28;20550;-35
2023/12/11 02:31:13;;;;;;;30.98;5.90;;;9.20;99.90;;;;;;5006847;28;20061;-37
2023/12/11 02:33:40;;;;;;;35.53;6.28;;;9.20;99.90;;;;;;5006665;28;20041;-35
2023/12/11 02:36:06;;;;;;;26.35;5.43;;;9.20;99.90;;;;;;5004691;28;20124;-35
2023/12/11 02:38:32;;;;;;;32.05;5.90;;;9.20;99.90;;;;;;5007257;28;20446;-35
2023/12/11 02:40:57;;;;;;;40.95;6.63;;;9.10;99.90;;;;;;5008159;28;20061;-35
2023/12/11 02:43:23;;;;;;;37.40;7.13;;;9.10;99.90;;;;;;5010071;28;20052;-38
2023/12/11 02:45:49;;;;;;;39.80;6.15;;;9.10;99.90;;;;;;5005180;28;20531;-35
2023/12/11 02:48:15;;;;;;;36.88;6.45;;;9.20;99.90;;;;;;5008673;28;20057;-35
2023/12/11 02:50:41;;;;;;;30.92;5.63;;;9.20;99.90;;;;;;5007963;28;20118;-35
2023/12/11 02:53:07;;;;;;;36.13;6.90;;;9.20;99.90;;;;;;5007311;28;20049;-35
2023/12/11 02:55:32;;;;;;;36.05;6.60;;;9.20;99.90;;;;;;5010837;28;20522;-35
2023/12/11 02:58:00;;;;;;;33.10;5.85;;;9.20;99.90;;;;;;5005135;28;20058;-35
2023/12/11 03:00:27;;;;;;;35.75;6.57;;;9.20;99.90;;;;;;5011840;28;20049;-35
2023/12/11 03:02:53;;;;;;;36.35;6.18;;;9.20;99.90;;;;;;5006823;28;20464;-35
2023/12/11 03:05:19;;;;;;;40.78;7.68;;;9.20;99.90;;;;;;5006220;28;20046;-35
2023/12/11 03:07:45;;;;;;;32.08;5.55;;;9.20;99.90;;;;;;5007558;28;20049;-40
2023/12/11 03:10:11;;;;;;;45.95;7.68;;;9.20;99.90;;;;;;5007122;28;20072;-35
2023/12/11 03:12:37;;;;;;;34.50;6.43;;;9.20;99.90;;;;;;5008375;28;20058;-35
2023/12/11 03:15:04;;;;;;;33.90;6.20;;;9.10;99.90;;;;;;5006085;28;20061;-35
2023/12/11 03:17:30;;;;;;;34.05;6.05;;;9.20;99.90;;;;;;5008113;28;20615;-35
2023/12/11 03:19:56;;;;;;;26.33;5.50;;;9.30;99.90;;;;;;5007765;28;20069;-35
2023/12/11 03:22:24;;;;;;;30.85;4.88;;;9.30;99.90;;;;;;5008122;28;20088;-35
2023/12/11 03:24:51;;;;;;;30.38;5.97;;;9.40;99.90;;;;;;5008793;28;20045;-36
2023/12/11 03:27:17;;;;;;;28.33;5.55;;;9.40;99.90;;;;;;5006911;28;20149;-35
2023/12/11 03:29:43;;;;;;;28.58;5.55;;;9.40;99.90;;;;;;5007553;28;20505;-35
2023/12/11 03:32:09;;;;;;;32.53;5.97;;;9.40;99.90;;;;;;5008348;28;20057;-35
2023/12/11 03:34:35;;;;;;;32.60;6.03;;;9.40;99.90;;;;;;5008679;28;20491;-35
2023/12/11 03:37:02;;;;;;;29.55;5.57;;;9.40;99.90;;;;;;5005005;28;20066;-35
2023/12/11 03:39:27;;;;;;;32.10;5.38;;;9.30;99.90;;;;;;5006599;28;20443;-35
2023/12/11 03:41:54;;;;;;;33.47;5.75;;;9.30;99.90;;;;;;5005242;28;20080;-35
2023/12/11 03:44:19;;;;;;;25.33;5.25;;;9.30;99.90;;;;;;5007172;28;20054;-44
2023/12/11 03:46:45;;;;;;;24.83;4.93;;;9.30;99.90;;;;;;5007529;28;20632;-35
2023/12/11 03:49:11;;;;;;;26.52;5.40;;;9.20;99.90;;;;;;5011574;28;20049;-35
2023/12/11 03:51:37;;;;;;;29.85;5.35;;;9.20;99.90;;;;;;5005671;28;20062;-35
2023/12/11 03:54:02;;;;;;;27.10;5.15;;;9.20;99.90;;;;;;5005072;28;20049;-35
2023/12/11 03:56:28;;;;;;;25.52;4.57;;;9.20;99.90;;;;;;5007006;28;20508;-35
2023/12/11 03:58:54;;;;;;;29.27;5.40;;;9.20;99.90;;;;;;5004387;28;20053;-35
2023/12/11 04:01:20;;;;;;;28.45;5.20;;;9.20;99.90;;;;;;5004587;28;21698;-40
2023/12/11 04:03:46;;;;;;;28.80;5.15;;;9.20;99.90;;;;;;5007349;28;20045;-35
2023/12/11 04:06:11;;;;;;;32.60;5.60;;;9.20;99.90;;;;;;5005114;28;20140;-44
2023/12/11 04:08:41;;;;;;;28.60;4.90;;;9.30;99.90;;;;;;5003601;28;20070;-35
2023/12/11 04:11:08;;;;;;;29.70;5.00;;;9.30;99.90;;;;;;5006401;28;20053;-35
2023/12/11 04:13:34;;;;;;;26.42;5.18;;;9.30;99.90;;;;;;5003872;28;20555;-35
2023/12/11 04:16:00;;;;;;;30.67;5.28;;;9.30;99.90;;;;;;5005392;28;20125;-35
2023/12/11 04:18:26;;;;;;;24.80;4.90;;;9.30;99.90;;;;;;5005617;28;20046;-35
2023/12/11 04:20:51;;;;;;;25.75;5.05;;;9.30;99.90;;;;;;5003743;28;20046;-38
2023/12/11 04:23:17;;;;;;;26.58;4.60;;;9.30;99.90;;;;;;5005290;28;20057;-35
2023/12/11 04:25:43;;;;;;;33.53;5.30;;;9.30;99.90;;;;;;5004871;28;20458;-35
2023/12/11 04:28:08;;;;;;;30.23;4.97;;;9.20;99.90;;;;;;5003423;28;20061;-35
2023/12/11 04:30:34;;;;;;;21.98;4.82;;;9.20;99.90;;;;;;5006355;28;20068;-35
2023/12/11 04:33:00;;;;;;;32.65;5.60;;;9.10;99.90;;;;;;5004187;28;20092;-35
2023/12/11 04:35:25;;;;;;;26.38;5.15;;;9.10;99.90;;;;;;5003735;28;20068;-35
2023/12/11 04:37:51;;;;;;;30.17;5.65;;;9.10;99.90;;;;;;5004249;28;20558;-40
2023/12/11 04:40:17;;;;;;;32.42;4.95;;;9.00;99.90;;;;;;5004294;28;20062;-35
2023/12/11 04:42:42;;;;;;;31.17;5.63;;;9.10;99.90;;;;;;5005623;28;20484;-35
2023/12/11 04:45:08;;;;;;;28.83;5.65;;;9.10;99.90;;;;;;5003893;28;20108;-35
2023/12/11 04:47:34;;;;;;;32.58;5.55;;;9.10;99.90;;;;;;5003685;28;20415;-35
2023/12/11 04:50:00;;;;;;;32.60;5.43;;;9.00;99.90;;;;;;5003027;28;20070;-35
2023/12/11 04:52:25;;;;;;;27.55;5.00;;;9.10;99.90;;;;;;5005604;28;20075;-35
2023/12/11 04:54:51;;;;;;;29.08;4.93;;;9.10;99.90;;;;;;5003082;28;20104;-50
2023/12/11 04:57:17;;;;;;;31.15;5.63;;;9.10;99.90;;;;;;5004753;28;20267;-35
2023/12/11 04:59:43;;;;;;;24.42;4.60;;;9.10;99.90;;;;;;5005006;28;20049;-35
2023/12/11 05:02:08;;;;;;;28.55;4.97;;;9.10;99.90;;;;;;5003195;28;21725;-35
2023/12/11 05:04:34;;;;;;;29.67;5.45;;;9.10;99.90;;;;;;5004846;28;20488;-35
2023/12/11 05:07:00;;;;;;;34.35;5.97;;;9.10;99.90;;;;;;5004962;28;20124;-35
2023/12/11 05:09:26;;;;;;;26.63;5.05;;;9.10;99.90;;;;;;5005810;28;20153;-35
2023/12/11 05:11:51;;;;;;;28.92;4.13;;;9.10;99.90;;;;;;5004662;28;20543;-48
2023/12/11 05:14:17;;;;;;;26.83;4.82;;;9.10;99.90;;;;;;5003272;28;20137;-35
2023/12/11 05:16:43;;;;;;;30.58;4.68;;;9.10;99.90;;;;;;5003457;28;20124;-35
2023/12/11 05:19:08;;;;;;;31.98;5.32;;;9.10;99.90;;;;;;5003547;28;20250;-35
2023/12/11 05:21:34;;;;;;;32.38;5.38;;;9.10;99.90;;;;;;5004699;28;20054;-35
2023/12/11 05:24:00;;;;;;;24.30;4.47;;;9.10;99.90;;;;;;5004205;28;20084;-35
2023/12/11 05:26:25;;;;;;;28.95;5.13;;;9.00;99.90;;;;;;5004435;28;20069;-35
2023/12/11 05:28:51;;;;;;;35.42;5.80;;;9.00;99.90;;;;;;5002317;28;20045;-55
2023/12/11 05:31:17;;;;;;;32.15;5.13;;;9.00;99.90;;;;;;5002786;28;20049;-35
2023/12/11 05:33:43;;;;;;;26.92;5.25;;;9.00;99.90;;;;;;5002307;28;20454;-35
2023/12/11 05:36:09;;;;;;;25.92;4.55;;;9.00;99.90;;;;;;5002249;28;20060;-35
2023/12/11 05:38:35;;;;;;;28.40;4.10;;;9.00;99.90;;;;;;5003908;28;20393;-35
2023/12/11 05:41:01;;;;;;;30.67;4.90;;;9.00;99.90;;;;;;5003920;28;20044;-35
2023/12/11 05:43:26;;;;;;;30.30;4.88;;;9.00;99.90;;;;;;5000704;28;20045;-35
2023/12/11 05:45:52;;;;;;;20.52;4.35;;;9.00;99.90;;;;;;5002808;28;20038;-38
2023/12/11 05:48:18;;;;;;;27.25;4.30;;;9.10;99.90;;;;;;5003447;28;20054;-35
2023/12/11 05:50:44;;;;;;;21.70;3.95;;;9.10;99.90;;;;;;5004776;28;20072;-35
2023/12/11 05:53:10;;;;;;;25.42;4.95;;;9.10;99.90;;;;;;5002581;28;20564;-35
2023/12/11 05:55:36;;;;;;;28.40;5.75;;;9.20;99.90;;;;;;5004465;28;20052;-35
2023/12/11 05:58:02;;;;;;;24.55;4.55;;;9.10;99.90;;;;;;5019877;28;20050;-35
2023/12/11 06:00:28;;;;;;;27.48;5.68;;;9.20;99.90;;;;;;5002035;28;20416;-36
2023/12/11 06:02:54;;;;;;;27.70;4.75;;;9.20;99.90;;;;;;5007055;28;20050;-35
2023/12/11 06:05:20;;;;;;;24.70;4.40;;;9.20;99.90;;;;;;5006191;28;20046;-42
2023/12/11 06:07:46;;;;;;;26.85;6.05;;;9.10;99.90;;;;;;5007993;28;20042;-35
2023/12/11 06:10:11;;;;;;;28.13;5.07;;;9.10;99.90;;;;;;5004817;28;20052;-35
2023/12/11 06:12:37;;;;;;;20.35;4.40;;;9.10;99.90;;;;;;5008881;28;20389;-36
2023/12/11 06:15:03;;;;;;;25.98;5.10;;;9.10;99.90;;;;;;5005344;28;20107;-35
2023/12/11 06:17:29;;;;;;;25.40;5.38;;;9.10;99.90;;;;;;5006722;28;20056;-36
2023/12/11 06:19:54;;;;;;;26.85;5.03;;;9.00;99.90;;;;;;5011488;28;20041;-36
2023/12/11 06:22:20;;;;;;;25.00;4.10;;;9.00;99.90;;;;;;5007922;28;20061;-35
2023/12/11 06:24:46;;;;;;;23.88;4.50;;;9.10;99.90;;;;;;5008758;28;20128;-35
2023/12/11 06:27:12;;;;;;;25.30;5.15;;;9.00;99.90;;;;;;5007154;28;20153;-35
2023/12/11 06:29:39;;;;;;;21.83;4.15;;;9.00;99.90;;;;;;5009709;28;20052;-36
2023/12/11 06:32:05;;;;;;;25.23;4.60;;;9.00;99.90;;;;;;5007142;28;20069;-35
2023/12/11 06:34:31;;;;;;;27.27;4.30;;;9.00;99.90;;;;;;5009601;28;20054;-35
2023/12/11 06:36:57;;;;;;;24.80;4.35;;;9.10;99.90;;;;;;5007458;28;20046;-35
2023/12/11 06:39:25;;;;;;;27.45;3.83;;;9.10;99.90;;;;;;5005343;28;20054;-46
2023/12/11 06:41:51;;;;;;;26.15;4.63;;;9.10;99.90;;;;;;5002560;28;20046;-35
2023/12/11 06:44:16;;;;;;;24.60;3.63;;;9.10;99.90;;;;;;5004586;28;20077;-35
2023/12/11 06:46:42;;;;;;;17.25;3.55;;;9.00;99.90;;;;;;5002480;28;20050;-35
2023/12/11 06:49:08;;;;;;;21.38;4.63;;;9.10;99.90;;;;;;5005835;28;20057;-35
2023/12/11 06:51:35;;;;;;;23.45;3.60;;;9.00;99.90;;;;;;5005434;28;20099;-35
2023/12/11 06:54:01;;;;;;;24.20;3.67;;;9.00;99.90;;;;;;5006570;28;20069;-35
2023/12/11 06:56:30;;;;;;;21.30;3.75;;;9.00;99.90;;;;;;5005956;28;20577;-36
2023/12/11 06:58:56;;;;;;;26.95;3.90;;;9.00;99.90;;;;;;5005981;28;20619;-35
2023/12/11 07:01:29;;;;;;;24.52;4.15;;;9.00;99.90;;;;;;5006596;28;20048;-35
2023/12/11 07:03:55;;;;;;;26.67;4.85;;;8.90;99.90;;;;;;5005147;28;20078;-35
2023/12/11 07:06:21;;;;;;;25.25;4.05;;;8.90;99.90;;;;;;5005133;28;20505;-36
2023/12/11 07:08:47;;;;;;;22.00;4.22;;;8.90;99.90;;;;;;5003901;28;20065;-35
2023/12/11 07:11:13;;;;;;;27.13;4.90;;;8.90;99.90;;;;;;5003451;28;20038;-35
2023/12/11 07:13:41;;;;;;;22.00;4.25;;;8.90;99.90;;;;;;5003961;28;20037;-36
2023/12/11 07:16:08;;;;;;;21.08;3.10;;;8.80;99.90;;;;;;5011819;28;20480;-40
2023/12/11 07:18:34;;;;;;;21.65;3.60;;;8.80;99.90;;;;;;5010973;28;20049;-46
2023/12/11 07:20:59;;;;;;;20.42;3.22;;;8.80;99.90;;;;;;5013841;28;20046;-36
2023/12/11 07:23:25;;;;;;;24.30;3.33;;;8.80;99.90;;;;;;5015629;28;20053;-36
2023/12/11 07:25:51;;;;;;;22.48;3.20;;;8.80;99.90;;;;;;5010336;28;20057;-36
2023/12/11 07:28:16;;;;;;;24.98;3.40;;;8.80;99.90;;;;;;5008879;28;20053;-35
2023/12/11 07:30:42;;;;;;;18.08;3.13;;;8.80;99.90;;;;;;5016344;28;20190;-36
2023/12/11 07:33:08;;;;;;;16.33;3.03;;;8.80;99.90;;;;;;5004604;28;20050;-36
2023/12/11 07:35:35;;;;;;;13.52;3.25;;;8.80;99.90;;;;;;5004251;28;20053;-36
2023/12/11 07:38:02;;;;;;;14.77;2.97;;;8.80;99.90;;;;;;5019026;28;20153;-35
2023/12/11 07:40:28;;;;;;;14.73;3.15;;;8.80;99.90;;;;;;5002291;28;20885;-36
2023/12/11 07:42:54;;;;;;;15.30;2.83;;;8.80;99.90;;;;;;5003042;28;20068;-35
2023/12/11 07:45:22;;;;;;;19.33;3.60;;;8.80;99.90;;;;;;5010045;28;20082;-35
2023/12/11 07:47:47;;;;;;;15.10;2.38;;;8.80;99.90;;;;;;5007595;28;20129;-36
2023/12/11 07:50:13;;;;;;;12.38;2.45;;;8.80;99.90;;;;;;5008747;28;20072;-35
2023/12/11 07:52:41;;;;;;;14.35;2.45;;;8.80;99.90;;;;;;5008386;28;20090;-36
2023/12/11 07:55:07;;;;;;;14.40;2.22;;;8.80;99.90;;;;;;5010983;28;20698;-36
2023/12/11 07:57:33;;;;;;;12.18;2.00;;;8.80;99.90;;;;;;5006095;28;20389;-43
2023/12/11 07:59:58;;;;;;;10.05;2.13;;;8.80;99.90;;;;;;5009945;28;20045;-36
2023/12/11 08:02:24;;;;;;;11.18;1.70;;;8.80;99.90;;;;;;5006047;28;20060;-36
2023/12/11 08:04:50;;;;;;;13.13;2.20;;;8.80;99.90;;;;;;5007827;28;20045;-36
2023/12/11 08:07:16;;;;;;;10.07;1.80;;;8.80;99.90;;;;;;5003048;28;20500;-35
2023/12/11 08:09:42;;;;;;;10.65;1.90;;;8.80;99.90;;;;;;5004714;28;20108;-36
2023/12/11 08:12:09;;;;;;;8.95;1.55;;;8.80;99.90;;;;;;5004161;28;20492;-36
2023/12/11 08:14:34;;;;;;;11.15;1.88;;;8.80;99.90;;;;;;5010342;28;20053;-36
2023/12/11 08:17:00;;;;;;;14.15;2.08;;;8.80;99.90;;;;;;5006715;28;20088;-36
2023/12/11 08:19:26;;;;;;;13.05;1.83;;;8.70;99.90;;;;;;5006029;28;20038;-36
2023/12/11 08:21:55;;;;;;;8.57;1.98;;;8.80;99.90;;;;;;5005503;28;20058;-35
2023/12/11 08:24:21;;;;;;;10.75;1.92;;;8.70;99.90;;;;;;5007081;28;20054;-35
2023/12/11 08:26:47;;;;;;;9.43;1.85;;;8.70;99.90;;;;;;5008020;28;20077;-36
2023/12/11 08:29:12;;;;;;;10.38;1.90;;;8.70;99.90;;;;;;5002628;28;20127;-36
2023/12/11 08:31:38;;;;;;;12.00;2.13;;;8.70;99.90;;;;;;5009222;28;20049;-36
2023/12/11 08:34:05;;;;;;;11.93;2.63;;;8.70;99.90;;;;;;5006271;28;20587;-36
2023/12/11 08:36:30;;;;;;;19.85;3.13;;;8.70;99.90;;;;;;5008029;28;20149;-35
2023/12/11 08:38:56;;;;;;;16.50;2.78;;;8.70;99.90;;;;;;5003680;28;20141;-43
2023/12/11 08:41:22;;;;;;;17.35;2.83;;;8.60;99.90;;;;;;5004027;28;20057;-35
2023/12/11 08:43:48;;;;;;;16.20;3.08;;;8.60;99.90;;;;;;5006093;28;20125;-36
2023/12/11 08:46:13;;;;;;;17.48;3.20;;;8.70;99.90;;;;;;5005414;28;20056;-35
2023/12/11 08:48:39;;;;;;;21.35;2.92;;;8.70;99.90;;;;;;5004720;28;20048;-38
2023/12/11 08:51:05;;;;;;;12.48;2.30;;;8.70;99.90;;;;;;5007972;28;20057;-36
2023/12/11 08:53:31;;;;;;;18.27;2.95;;;8.70;99.90;;;;;;5006025;28;20065;-36
2023/12/11 08:55:57;;;;;;;23.73;3.92;;;8.70;99.90;;;;;;5003286;28;20100;-36
2023/12/11 08:58:24;;;;;;;20.55;2.95;;;8.70;99.90;;;;;;5001999;28;20045;-36
2023/12/11 09:00:50;;;;;;;18.85;3.28;;;8.80;99.90;;;;;;5007340;28;20140;-36
2023/12/11 09:03:16;;;;;;;18.95;3.30;;;8.80;99.90;;;;;;5000756;28;20143;-35
2023/12/11 09:05:42;;;;;;;18.23;2.88;;;8.80;99.90;;;;;;5005581;28;20073;-37
2023/12/11 09:08:09;;;;;;;16.05;2.53;;;8.80;99.90;;;;;;5001865;28;20042;-36
2023/12/11 09:10:35;;;;;;;14.48;2.72;;;8.80;99.90;;;;;;5005864;28;20053;-36
2023/12/11 09:13:02;;;;;;;18.23;2.90;;;8.80;99.90;;;;;;5006135;28;20084;-35
2023/12/11 09:15:28;;;;;;;13.82;2.33;;;8.80;99.90;;;;;;5001070;28;20054;-36
2023/12/11 09:17:54;;;;;;;14.68;2.40;;;8.80;99.90;;;;;;5001015;28;20103;-36
2023/12/11 09:20:20;;;;;;;18.17;3.08;;;8.80;99.90;;;;;;5001533;28;20058;-36
2023/12/11 09:22:46;;;;;;;11.60;2.10;;;8.80;99.90;;;;;;5008281;28;20050;-36
2023/12/11 09:25:12;;;;;;;14.15;2.17;;;8.80;99.90;;;;;;5003569;28;20050;-36
2023/12/11 09:27:38;;;;;;;16.50;2.38;;;8.80;99.90;;;;;;5007642;28;20056;-35
2023/12/11 09:30:06;;;;;;;16.20;2.50;;;8.80;99.90;;;;;;5015238;28;20049;-35
2023/12/11 09:32:32;;;;;;;12.65;2.00;;;8.70;99.90;;;;;;5002871;28;20478;-35
2023/12/11 09:34:57;;;;;;;17.23;2.00;;;8.70;99.90;;;;;;5005009;28;20092;-36
2023/12/11 09:37:23;;;;;;;17.92;2.83;;;8.70;99.90;;;;;;5005033;28;20397;-36
2023/12/11 09:39:49;;;;;;;15.75;2.50;;;8.80;99.90;;;;;;5009862;28;20100;-35
2023/12/11 09:42:15;;;;;;;10.50;2.03;;;8.80;99.90;;;;;;5000545;28;20062;-37
2023/12/11 09:44:45;;;;;;;18.70;2.28;;;8.80;99.90;;;;;;5003934;28;20061;-35
2023/12/11 09:47:15;;;;;;;11.43;2.60;;;8.80;99.90;;;;;;5001442;28;20563;-35
2023/12/11 09:49:41;;;;;;;15.32;2.38;;;8.80;99.90;;;;;;5004040;28;20073;-35
2023/12/11 09:52:07;;;;;;;21.42;3.08;;;8.80;99.90;;;;;;5007060;28;20077;-35
2023/12/11 09:54:33;;;;;;;24.77;2.90;;;8.80;99.90;;;;;;5004530;28;20080;-35
2023/12/11 09:56:59;;;;;;;16.88;3.13;;;8.90;99.90;;;;;;5005397;28;20073;-35
2023/12/11 09:59:27;;;;;;;19.13;2.67;;;8.90;99.90;;;;;;5006216;28;20053;-35
2023/12/11 10:01:54;;;;;;;18.75;2.65;;;8.80;99.90;;;;;;5003479;28;20550;-35
2023/12/11 10:04:20;;;;;;;18.13;2.17;;;8.80;99.90;;;;;;5005635;28;20046;-35
2023/12/11 10:06:45;;;;;;;22.52;3.53;;;8.80;99.90;;;;;;5003800;28;20056;-35
2023/12/11 10:09:33;;;;;;;21.73;3.35;;;8.70;99.90;;;;;;5007044;28;20050;-35
2023/12/11 10:12:03;;;;;;;20.25;3.13;;;8.70;99.90;;;;;;5004004;28;20046;-35
2023/12/11 10:14:30;;;;;;;16.35;2.45;;;8.70;99.90;;;;;;5006359;28;20056;-36
2023/12/11 10:16:57;;;;;;;18.33;3.15;;;8.70;99.90;;;;;;4999979;28;20895;-35
2023/12/11 10:19:33;;;;;;;15.60;2.50;;;8.70;99.90;;;;;;5006534;28;20562;-35
2023/12/11 10:22:00;;;;;;;15.35;2.75;;;8.70;99.90;;;;;;5003931;28;20061;-35
2023/12/11 10:24:26;;;;;;;16.15;2.78;;;8.70;99.90;;;;;;5009090;28;20054;-36
2023/12/11 10:26:56;;;;;;;13.10;2.35;;;8.70;99.90;;;;;;5007227;28;21183;-36
2023/12/11 10:29:26;;;;;;;17.73;2.42;;;8.70;99.90;;;;;;5006500;28;20133;-36
2023/12/11 10:31:59;;;;;;;14.43;2.60;;;8.70;99.90;;;;;;5002565;28;20081;-38
2023/12/11 10:34:45;;;;;;;18.58;3.13;;;8.70;99.90;;;;;;5006437;28;20050;-36
2023/12/11 10:37:15;;;;;;;13.13;2.22;;;8.70;99.90;;;;;;5004387;28;20054;-36
2023/12/11 10:40:02;;;;;;;9.50;1.70;;;8.70;99.90;;;;;;5007935;28;20053;-41
2023/12/11 10:42:27;;;;;;;15.15;1.92;;;8.80;99.90;;;;;;5005712;28;20062;-36
2023/12/11 10:44:54;;;;;;;14.60;2.58;;;8.90;99.90;;;;;;5000716;28;20053;-35
2023/12/11 10:47:20;;;;;;;9.35;2.10;;;8.90;99.90;;;;;;5000781;28;20042;-35
2023/12/11 10:49:46;;;;;;;13.05;2.05;;;8.90;99.90;;;;;;5006061;28;20122;-35
2023/12/11 10:52:12;;;;;;;11.13;1.65;;;8.90;99.90;;;;;;5009456;28;20053;-35
2023/12/11 10:54:38;;;;;;;12.93;2.33;;;8.90;99.90;;;;;;5009995;28;20517;-35
2023/12/11 10:57:08;;;;;;;16.90;3.08;;;9.00;99.90;;;;;;5007357;28;20054;-34
2023/12/11 10:59:35;;;;;;;13.93;2.72;;;9.00;99.90;;;;;;5011730;28;20125;-35
2023/12/11 11:02:02;;;;;;;19.60;3.13;;;8.90;99.90;;;;;;5008770;28;20108;-36
2023/12/11 11:04:34;;;;;;;15.73;2.75;;;8.90;99.90;;;;;;5005556;28;20053;-35
2023/12/11 11:07:17;;;;;;;16.50;3.00;;;8.80;99.90;;;;;;5012588;28;20037;-36
2023/12/11 11:09:54;;;;;;;17.48;3.55;;;8.80;99.90;;;;;;5010085;28;20046;-53
2023/12/11 11:12:23;;;;;;;16.70;2.88;;;8.70;99.90;;;;;;5009550;28;20045;-35
2023/12/11 11:14:49;;;;;;;15.55;2.58;;;8.70;99.90;;;;;;5007624;28;20088;-35
2023/12/11 11:17:16;;;;;;;17.48;3.00;;;8.70;99.90;;;;;;5011126;28;20046;-35
2023/12/11 11:20:15;;;;;;;11.88;3.05;;;8.70;99.90;;;;;;5007599;28;20053;-35
2023/12/11 11:22:41;;;;;;;14.88;3.03;;;8.80;99.90;;;;;;5005894;28;20069;-36
2023/12/11 11:25:28;;;;;;;22.65;3.20;;;8.80;99.90;;;;;;5008887;28;20057;-35
2023/12/11 11:27:54;;;;;;;14.88;2.70;;;8.90;99.90;;;;;;5008428;28;20054;-35
2023/12/11 11:30:48;;;;;;;12.32;2.47;;;8.90;99.90;;;;;;5009262;28;20056;-35
2023/12/11 11:33:14;;;;;;;11.18;1.95;;;8.90;99.90;;;;;;5009616;28;20050;-48
2023/12/11 11:35:47;;;;;;;13.00;1.67;;;8.90;99.90;;;;;;5005089;28;20157;-35
2023/12/11 11:38:13;;;;;;;11.88;1.80;;;9.00;99.90;;;;;;5004692;28;20053;-35
2023/12/11 11:40:39;;;;;;;9.75;1.45;;;9.00;99.90;;;;;;5004959;28;20053;-36
2023/12/11 11:43:09;;;;;;;8.65;1.67;;;9.00;99.90;;;;;;5007565;28;20108;-34
2023/12/11 11:45:34;;;;;;;10.98;2.03;;;9.10;99.90;;;;;;5002792;28;20096;-35
2023/12/11 11:48:00;;;;;;;12.20;1.70;;;9.10;99.90;;;;;;5007025;28;21296;-35
2023/12/11 11:50:26;;;;;;;7.95;1.30;;;9.00;99.90;;;;;;5006862;28;20057;-35
2023/12/11 11:53:01;;;;;;;11.70;1.52;;;9.10;99.90;;;;;;5003710;28;20068;-35
2023/12/11 11:55:27;;;;;;;8.45;1.40;;;9.10;99.90;;;;;;5004470;28;20066;-36
2023/12/11 11:57:54;;;;;;;10.38;1.17;;;9.10;99.90;;;;;;5002007;28;21151;-34
2023/12/11 12:00:28;;;;;;;7.93;1.25;;;9.10;99.90;;;;;;5006795;28;20574;-35
2023/12/11 12:03:04;;;;;;;8.93;1.08;;;9.10;99.90;;;;;;5006227;28;20061;-34
2023/12/11 12:05:30;;;;;;;9.40;1.35;;;9.00;99.90;;;;;;5002761;28;20404;-35
2023/12/11 12:07:56;;;;;;;6.75;1.00;;;8.90;99.90;;;;;;5005220;28;20054;-35
2023/12/11 12:10:22;;;;;;;6.72;0.70;;;8.90;99.90;;;;;;5006134;28;20127;-35
2023/12/11 12:12:55;;;;;;;7.85;1.00;;;8.80;99.90;;;;;;5003493;28;20065;-35
2023/12/11 12:15:21;;;;;;;5.38;1.08;;;8.70;99.90;;;;;;5005889;28;20056;-35
2023/12/11 12:17:46;;;;;;;7.20;0.75;;;8.70;99.90;;;;;;5008434;28;20054;-35
2023/12/11 12:20:16;;;;;;;8.48;0.90;;;8.70;99.90;;;;;;5006776;28;20141;-34
2023/12/11 12:22:57;;;;;;;7.40;0.68;;;8.70;99.90;;;;;;5007302;28;20062;-35
2023/12/11 12:25:23;;;;;;;4.72;0.60;;;9.20;99.90;;;;;;5008543;28;20496;-35
2023/12/11 12:27:51;;;;;;;4.22;0.40;;;9.70;99.90;;;;;;5005606;28;20049;-35
2023/12/11 12:30:21;;;;;;;8.55;1.10;;;9.90;99.90;;;;;;5007513;28;20385;-35
2023/12/11 12:32:49;;;;;;;3.95;0.65;;;10.20;99.90;;;;;;5011760;28;20058;-36
2023/12/11 12:35:16;;;;;;;3.33;0.60;;;10.60;99.90;;;;;;5007662;28;20136;-35
2023/12/11 12:37:43;;;;;;;4.80;0.98;;;10.90;99.90;;;;;;5004321;28;20061;-35
2023/12/11 12:40:09;;;;;;;2.58;0.38;;;10.90;99.90;;;;;;5005103;28;20749;-35
2023/12/11 12:42:35;;;;;;;2.63;0.30;;;10.60;99.90;;;;;;5008085;28;20271;-36
2023/12/11 12:45:01;;;;;;;2.92;0.50;;;10.30;99.90;;;;;;5006217;28;20060;-35